Time;durP1;ratioP1;P1;durP2;ratioP2;P2;SDS_P1;SDS_P2;PMS_P1;PMS_P2;Temp;Humidity;BMP_temperature;BMP_pressure;BME280_temperature;BME280_humidity;BME280_pressure;Samples;Min_cycle;Max_cycle;Signal;HPM_P1;HPM_P2
2024/01/17 00:00:54;;;;;;;73.00;29.70;;;;;;;-144.99;86.43;78327.53;108331;1249;61090;-73
2024/01/17 00:03:21;;;;;;;102.90;39.90;;;;;;;-144.99;85.47;78369.33;108369;1250;60826;-73
2024/01/17 00:05:48;;;;;;;71.20;28.00;;;;;;;-144.99;85.64;78395.20;108318;1254;73204;-73
2024/01/17 00:08:15;;;;;;;73.30;26.80;;;;;;;-144.99;85.53;78415.89;108298;1251;73252;-73
2024/01/17 00:10:42;;;;;;;117.50;36.30;;;;;;;-144.99;85.29;78437.38;108358;1251;72624;-73
2024/01/17 00:13:09;;;;;;;357.20;75.20;;;;;;;-144.99;85.95;78443.35;108374;1249;61217;-73
2024/01/17 00:15:36;;;;;;;111.10;32.00;;;;;;;-144.99;85.37;78455.70;108301;1253;61121;-74
2024/01/17 00:18:03;;;;;;;81.70;24.20;;;;;;;-144.99;85.95;78472.80;108331;1253;74611;-73
2024/01/17 00:20:30;;;;;;;173.70;47.40;;;;;;;-144.99;86.50;78481.56;108320;1253;73604;-73
2024/01/17 00:22:58;;;;;;;61.20;21.70;;;;;;;-144.99;86.94;78489.13;108399;1251;72457;-73
2024/01/17 00:25:25;;;;;;;118.50;33.90;;;;;;;-144.99;87.71;78491.11;108338;1251;60789;-73
2024/01/17 00:27:52;;;;;;;220.00;56.60;;;;;;;-144.99;88.79;78487.53;108350;1251;61058;-73
2024/01/17 00:30:18;;;;;;;231.30;59.50;;;;;;;-144.99;89.84;78472.41;108363;1253;74573;-73
2024/01/17 00:32:45;;;;;;;38.20;15.50;;;;;;;-144.99;90.48;78449.72;108298;1253;73517;-72
2024/01/17 00:35:12;;;;;;;30.50;14.90;;;;;;;-144.99;91.37;78424.65;108322;1251;72535;-73
2024/01/17 00:37:39;;;;;;;36.20;15.40;;;;;;;-144.99;91.91;78399.58;108306;1251;61124;-73
2024/01/17 00:40:08;;;;;;;31.50;14.10;;;;;;;-144.99;92.50;78376.89;108375;1251;60140;-73
2024/01/17 00:42:35;;;;;;;32.10;14.60;;;;;;;-144.99;92.97;78354.60;108349;1253;72134;-73
2024/01/17 00:45:06;;;;;;;92.60;28.10;;;;;;;-144.99;92.82;78341.47;108344;1251;73325;-74
2024/01/17 00:47:34;;;;;;;62.70;20.70;;;;;;;-144.99;92.84;78324.75;108256;1253;72603;-73
2024/01/17 00:50:01;;;;;;;62.90;21.20;;;;;;;-144.99;92.43;78323.16;108277;1250;61073;-73
2024/01/17 00:52:30;;;;;;;71.50;24.00;;;;;;;-144.99;92.23;78328.33;108339;1250;61078;-74
2024/01/17 00:54:57;;;;;;;52.80;19.70;;;;;;;-144.99;92.45;78334.30;108320;1253;72278;-75
2024/01/17 00:57:24;;;;;;;34.20;15.50;;;;;;;-144.99;92.85;78332.31;108310;1253;73422;-73
2024/01/17 00:59:51;;;;;;;38.00;15.70;;;;;;;-144.99;93.38;78323.16;108339;1249;71472;-73
2024/01/17 01:02:18;;;;;;;49.50;21.00;;;;;;;-144.99;93.86;78304.05;108316;1251;61193;-73
2024/01/17 01:04:45;;;;;;;74.00;27.70;;;;;;;-144.99;94.22;78286.94;108330;1251;61189;-74
2024/01/17 01:07:11;;;;;;;123.00;43.80;;;;;;;-144.99;94.37;78267.05;108351;1251;72812;-74
2024/01/17 01:09:38;;;;;;;30.00;13.80;;;;;;;-144.99;94.63;78245.15;108369;1251;72770;-74
2024/01/17 01:12:05;;;;;;;24.10;12.70;;;;;;;-144.99;94.61;78224.05;108337;1251;72542;-74
2024/01/17 01:14:32;;;;;;;45.10;18.30;;;;;;;-144.99;94.33;78218.48;108326;1250;61219;-74
2024/01/17 01:16:59;;;;;;;63.50;23.90;;;;;;;-144.99;93.91;78215.30;108319;1250;61206;-74
2024/01/17 01:19:26;;;;;;;33.00;15.40;;;;;;;-144.99;93.63;78216.10;108286;1251;73246;-74
2024/01/17 01:21:52;;;;;;;32.90;14.70;;;;;;;-144.99;93.60;78216.10;108318;1251;73311;-74
2024/01/17 01:24:19;;;;;;;33.40;14.90;;;;;;;-144.99;93.43;78216.10;108323;1251;72308;-74
2024/01/17 01:26:46;;;;;;;29.50;14.10;;;;;;;-144.99;93.53;78212.91;108282;1253;60455;-74
2024/01/17 01:29:14;;;;;;;28.30;12.90;;;;;;;-144.99;93.86;78197.80;108342;1251;61295;-74
2024/01/17 01:31:40;;;;;;;40.60;17.00;;;;;;;-144.99;94.17;78181.48;108308;1251;73164;-73
2024/01/17 01:34:08;;;;;;;37.50;16.60;;;;;;;-144.99;93.84;78167.15;108334;1251;72206;-74
2024/01/17 01:36:35;;;;;;;45.10;18.00;;;;;;;-144.99;93.92;78161.17;108333;1251;71637;-74
2024/01/17 01:39:02;;;;;;;60.30;23.80;;;;;;;-144.99;93.83;78146.05;108353;1254;61291;-74
2024/01/17 01:41:29;;;;;;;62.00;23.50;;;;;;;-144.99;93.51;78130.93;108325;1251;61321;-74
2024/01/17 01:44:15;;;;;;;;;;;;;;;-144.99;93.08;78117.40;108374;1251;73238;-74
2024/01/17 01:46:43;;;;;;;24.60;12.80;;;;;;;-144.99;92.62;78107.45;108308;1253;72492;-74
2024/01/17 01:49:10;;;;;;;28.20;12.50;;;;;;;-144.99;92.38;78099.09;108313;1251;72470;-74
2024/01/17 01:51:39;;;;;;;31.30;14.20;;;;;;;-144.99;92.28;78101.88;108451;1251;61126;-74
2024/01/17 01:54:06;;;;;;;52.00;23.30;;;;;;;-144.99;91.92;78098.30;108364;1251;61199;-74
2024/01/17 01:56:33;;;;;;;31.40;13.80;;;;;;;-144.99;91.60;78097.50;108330;1251;74346;-74
2024/01/17 01:59:00;;;;;;;33.20;14.80;;;;;;;-144.99;91.53;78101.48;108369;1250;73275;-74
2024/01/17 02:01:27;;;;;;;29.90;15.40;;;;;;;-144.99;91.40;78099.09;108374;1251;71249;-74
2024/01/17 02:03:54;;;;;;;31.60;13.60;;;;;;;-144.99;91.61;78094.71;108399;1251;61299;-74
2024/01/17 02:06:21;;;;;;;28.50;13.80;;;;;;;-144.99;91.72;78093.52;108506;1251;61093;-74
2024/01/17 02:08:50;;;;;;;32.00;14.90;;;;;;;-144.99;91.59;78087.55;108411;1256;73576;-74
2024/01/17 02:11:18;;;;;;;31.40;12.80;;;;;;;-144.99;91.31;78084.37;108386;1251;73397;-74
2024/01/17 02:13:45;;;;;;;24.50;12.30;;;;;;;-144.99;91.19;78077.60;108370;1253;71226;-74
2024/01/17 02:16:13;;;;;;;35.20;16.40;;;;;;;-144.99;91.09;78081.98;108456;1250;60949;-74
2024/01/17 02:18:39;;;;;;;25.80;12.50;;;;;;;-144.99;91.12;78087.55;108346;1249;60142;-74
2024/01/17 02:21:07;;;;;;;28.50;12.70;;;;;;;-144.99;90.84;78090.34;108380;1253;73184;-74
2024/01/17 02:23:34;;;;;;;29.80;14.40;;;;;;;-144.99;91.05;78092.73;108484;1251;73204;-74
2024/01/17 02:26:01;;;;;;;32.90;14.70;;;;;;;-144.99;91.03;78095.11;108371;1251;72374;-74
2024/01/17 02:28:29;;;;;;;34.50;15.50;;;;;;;-144.99;91.15;78100.29;108356;1251;61827;-74
2024/01/17 02:30:56;;;;;;;30.70;14.00;;;;;;;-144.99;90.66;78111.43;108347;1253;61225;-74
2024/01/17 02:33:24;;;;;;;37.20;14.00;;;;;;;-144.99;90.92;78124.96;108393;1251;73338;-74
2024/01/17 02:35:51;;;;;;;27.60;13.80;;;;;;;-144.99;91.39;78125.77;108499;1251;73512;-74
2024/01/17 02:38:18;;;;;;;25.90;13.50;;;;;;;-144.99;91.87;78120.98;108504;1251;72572;-74
2024/01/17 02:40:44;;;;;;;29.00;14.10;;;;;;;-144.99;91.94;78112.63;108377;1249;60858;-74
2024/01/17 02:43:11;;;;;;;30.90;13.90;;;;;;;-144.99;91.94;78105.07;108421;1251;61101;-74
2024/01/17 02:45:38;;;;;;;25.20;12.30;;;;;;;-144.99;92.16;78097.51;108374;1250;74333;-74
2024/01/17 02:48:05;;;;;;;31.60;14.00;;;;;;;-144.99;92.02;78091.93;108429;1251;72109;-74
2024/01/17 02:50:32;;;;;;;30.70;14.40;;;;;;;-144.99;91.67;78089.14;108390;1253;72561;-74
2024/01/17 02:52:58;;;;;;;30.40;13.50;;;;;;;-144.99;91.63;78085.96;108395;1249;61071;-74
2024/01/17 02:55:25;;;;;;;29.40;13.70;;;;;;;-144.99;91.60;78081.18;108407;1249;61135;-74
2024/01/17 02:57:52;;;;;;;31.90;14.40;;;;;;;-144.99;91.63;78077.61;108371;1251;74564;-74
2024/01/17 03:00:19;;;;;;;26.40;12.20;;;;;;;-144.99;91.45;78081.98;108388;1251;73396;-74
2024/01/17 03:02:46;;;;;;;34.10;14.90;;;;;;;-144.99;91.57;78084.37;108347;1251;71430;-75
2024/01/17 03:05:13;;;;;;;26.20;14.30;;;;;;;-144.99;91.58;78081.98;108384;1250;61668;-72
2024/01/17 03:07:40;;;;;;;29.60;14.00;;;;;;;-144.99;91.38;78081.19;108389;1250;61086;-74
2024/01/17 03:10:08;;;;;;;28.20;13.60;;;;;;;-144.99;91.22;78082.38;108405;1250;72264;-75
2024/01/17 03:12:35;;;;;;;32.60;13.50;;;;;;;-144.99;91.12;78088.35;108393;1251;73892;-76
2024/01/17 03:15:02;;;;;;;28.50;13.90;;;;;;;-144.99;91.44;78091.93;108356;1251;72808;-75
2024/01/17 03:17:30;;;;;;;26.70;12.50;;;;;;;-144.99;91.35;78102.28;108436;1249;61427;-75
2024/01/17 03:19:57;;;;;;;28.10;14.20;;;;;;;-144.99;91.57;78115.81;108435;1250;61193;-75
2024/01/17 03:22:24;;;;;;;24.00;12.50;;;;;;;-144.99;91.59;78126.16;108393;1249;73202;-74
2024/01/17 03:24:51;;;;;;;28.80;13.00;;;;;;;-144.99;91.59;78141.67;108400;1251;73366;-75
2024/01/17 03:27:18;;;;;;;27.70;13.40;;;;;;;-144.99;91.85;78160.38;108390;1250;72419;-75
2024/01/17 03:29:44;;;;;;;26.60;12.70;;;;;;;-144.99;92.36;78169.54;108409;1251;61087;-75
2024/01/17 03:32:11;;;;;;;26.10;13.40;;;;;;;-144.99;92.54;78179.88;108410;1251;61280;-75
2024/01/17 03:34:38;;;;;;;30.50;13.90;;;;;;;-144.99;92.87;78186.25;108338;1250;74874;-75
2024/01/17 03:37:05;;;;;;;31.00;13.40;;;;;;;-144.99;93.11;78192.63;108396;1251;73337;-75
2024/01/17 03:39:35;;;;;;;27.20;12.90;;;;;;;-144.99;93.41;78206.55;108340;1251;72617;-75
2024/01/17 03:42:02;;;;;;;27.10;13.70;;;;;;;-144.99;93.81;78216.10;108354;1250;61564;-75
2024/01/17 03:44:29;;;;;;;28.60;13.90;;;;;;;-144.99;94.17;78222.48;108382;1251;61089;-75
2024/01/17 03:46:56;;;;;;;36.10;16.20;;;;;;;-144.99;94.64;78226.05;108414;1251;74630;-75
2024/01/17 03:49:22;;;;;;;29.40;13.90;;;;;;;-144.99;94.79;78227.64;108442;1251;73743;-75
2024/01/17 03:51:49;;;;;;;27.70;13.30;;;;;;;-144.99;95.10;78227.23;108358;1250;72592;-75
2024/01/17 03:54:18;;;;;;;26.70;13.60;;;;;;;-144.99;95.26;78231.23;108500;1250;61244;-74
2024/01/17 03:56:44;;;;;;;29.10;12.40;;;;;;;-144.99;95.18;78237.20;108460;1251;61131;-75
2024/01/17 03:59:11;;;;;;;29.90;14.00;;;;;;;-144.99;95.08;78249.53;108401;1251;74580;-75
2024/01/17 04:01:46;;;;;;;30.80;13.60;;;;;;;-144.99;95.21;78261.08;108374;1250;72548;-75
2024/01/17 04:04:12;;;;;;;35.20;14.30;;;;;;;-144.99;94.99;78270.63;108364;1253;72599;-75
2024/01/17 04:06:40;;;;;;;27.80;12.30;;;;;;;-144.99;95.46;78275.40;108386;1251;61126;-75
2024/01/17 04:09:07;;;;;;;24.70;11.60;;;;;;;-144.99;95.89;78278.59;108343;1251;61231;-75
2024/01/17 04:11:35;;;;;;;30.50;13.90;;;;;;;-144.99;95.84;78285.74;108350;1251;73106;-75
2024/01/17 04:14:02;;;;;;;29.70;12.60;;;;;;;-144.99;96.27;78292.52;108341;1251;73502;-74
2024/01/17 04:16:29;;;;;;;34.60;14.90;;;;;;;-144.99;96.36;78299.68;108330;1250;72611;-75
2024/01/17 04:18:56;;;;;;;24.50;12.60;;;;;;;-144.99;96.57;78308.84;108383;1251;61100;-75
2024/01/17 04:21:23;;;;;;;33.10;16.50;;;;;;;-144.99;96.67;78314.80;108352;1251;61213;-75
2024/01/17 04:23:50;;;;;;;36.50;15.90;;;;;;;-144.99;96.67;78320.38;108321;1251;74576;-75
2024/01/17 04:26:26;;;;;;;52.20;23.80;;;;;;;-144.99;97.12;78327.14;108366;1249;73421;-75
2024/01/17 04:28:53;;;;;;;103.80;49.70;;;;;;;-144.99;97.29;78331.12;108325;1251;72635;-75
2024/01/17 04:31:26;;;;;;;93.50;50.30;;;;;;;-144.99;97.47;78333.11;108312;1249;61179;-75
2024/01/17 04:33:53;;;;;;;35.20;18.00;;;;;;;-144.99;97.76;78330.32;108361;1250;61078;-75
2024/01/17 04:36:20;;;;;;;39.90;22.00;;;;;;;-144.99;97.82;78330.33;108355;1251;74508;-74
2024/01/17 04:38:47;;;;;;;50.30;27.10;;;;;;;-144.99;97.91;78334.30;108358;1251;72112;-75
2024/01/17 04:41:15;;;;;;;57.70;40.80;;;;;;;-144.99;98.21;78332.71;108352;1249;72565;-75
2024/01/17 04:43:44;;;;;;;37.00;23.00;;;;;;;-144.99;98.48;78336.29;108330;1253;60847;-75
2024/01/17 04:46:12;;;;;;;40.30;21.40;;;;;;;-144.99;98.78;78335.50;108364;1250;61097;-75
2024/01/17 04:48:39;;;;;;;36.90;17.90;;;;;;;-144.99;98.92;78335.89;108410;1251;74614;-75
2024/01/17 04:51:07;;;;;;;41.60;19.80;;;;;;;-144.99;99.39;78337.89;108402;1251;73250;-75
2024/01/17 04:53:41;;;;;;;40.70;18.30;;;;;;;-144.99;99.76;78338.27;108335;1253;72376;-75
2024/01/17 04:56:09;;;;;;;35.20;15.80;;;;;;;-144.99;99.61;78339.88;108380;1250;61318;-75
2024/01/17 04:58:36;;;;;;;38.80;18.00;;;;;;;-144.99;99.53;78343.86;108406;1251;61210;-76
2024/01/17 05:01:05;;;;;;;42.90;19.60;;;;;;;-144.99;99.38;78348.63;108403;1250;74612;-75
2024/01/17 05:03:32;;;;;;;56.00;24.30;;;;;;;-144.99;99.67;78351.41;108408;1250;72169;-75
2024/01/17 05:06:01;;;;;;;59.80;25.70;;;;;;;-144.99;99.72;78354.60;108378;1251;72354;-74
2024/01/17 05:08:29;;;;;;;61.40;26.70;;;;;;;-144.99;99.99;78356.59;108325;1251;61217;-75
2024/01/17 05:10:56;;;;;;;56.30;24.40;;;;;;;-144.99;100.00;78356.59;108384;1249;61797;-74
2024/01/17 05:13:23;;;;;;;50.90;22.70;;;;;;;-144.99;100.00;78356.98;108416;1253;74318;-74
2024/01/17 05:15:50;;;;;;;52.20;21.80;;;;;;;-144.99;100.00;78354.20;108376;1251;73393;-74
2024/01/17 05:18:17;;;;;;;40.40;17.70;;;;;;;-144.99;100.00;78350.62;108393;1251;72637;-74
2024/01/17 05:20:44;;;;;;;61.40;24.60;;;;;;;-144.99;100.00;78348.23;108370;1250;61314;-73
2024/01/17 05:23:11;;;;;;;48.10;21.10;;;;;;;-144.99;100.00;78354.99;108381;1249;61152;-74
2024/01/17 05:25:38;;;;;;;50.10;22.40;;;;;;;-144.99;100.00;78356.98;108448;1250;74349;-73
2024/01/17 05:28:06;;;;;;;42.00;20.80;;;;;;;-144.99;100.00;78358.58;108418;1249;73403;-74
2024/01/17 05:30:33;;;;;;;43.10;20.80;;;;;;;-144.99;100.00;78363.75;108381;1250;72540;-74
2024/01/17 05:33:00;;;;;;;52.80;23.30;;;;;;;-144.99;100.00;78362.16;108337;1250;61179;-71
2024/01/17 05:35:28;;;;;;;49.90;23.40;;;;;;;-144.99;100.00;78360.58;108376;1251;61311;-73
2024/01/17 05:37:55;;;;;;;47.40;21.50;;;;;;;-144.99;100.00;78366.95;108310;1251;73386;-73
2024/01/17 05:40:22;;;;;;;57.10;25.90;;;;;;;-144.99;100.00;78374.10;108376;1250;73909;-73
2024/01/17 05:42:50;;;;;;;52.80;25.40;;;;;;;-144.99;100.00;78376.49;108347;1250;72531;-74
2024/01/17 05:45:17;;;;;;;47.60;22.30;;;;;;;-144.99;100.00;78376.89;108351;1250;62726;-73
2024/01/17 05:47:44;;;;;;;47.70;20.90;;;;;;;-144.99;100.00;78379.27;108335;1250;60318;-73
2024/01/17 05:50:14;;;;;;;42.00;19.50;;;;;;;-144.99;100.00;78384.45;108370;1251;74545;-74
2024/01/17 05:52:42;;;;;;;48.90;21.80;;;;;;;-144.99;100.00;78396.39;108443;1251;73990;-73
2024/01/17 05:55:09;;;;;;;73.60;29.30;;;;;;;-144.99;100.00;78399.98;108389;1251;69996;-72
2024/01/17 05:57:37;;;;;;;100.20;38.80;;;;;;;-144.99;100.00;78401.96;108353;1250;61245;-72
2024/01/17 06:00:10;;;;;;;86.80;33.60;;;;;;;-144.99;100.00;78405.15;108356;1250;61118;-74
2024/01/17 06:02:41;;;;;;;74.20;32.50;;;;;;;-144.99;100.00;78405.94;108308;1251;73407;-75
2024/01/17 06:05:08;;;;;;;52.20;25.00;;;;;;;-144.99;100.00;78403.55;108263;1251;73518;-72
2024/01/17 06:07:36;;;;;;;59.10;26.60;;;;;;;-144.99;100.00;78399.98;108332;1249;72647;-74
2024/01/17 06:10:03;;;;;;;51.50;22.90;;;;;;;-144.99;100.00;78394.00;108343;1253;61087;-73
2024/01/17 06:12:31;;;;;;;73.00;30.70;;;;;;;-144.99;100.00;78385.64;108318;1250;61189;-73
2024/01/17 06:14:58;;;;;;;123.80;48.50;;;;;;;-144.99;100.00;78371.71;108380;1250;74490;-71
2024/01/17 06:17:25;;;;;;;126.60;49.50;;;;;;;-144.99;100.00;78345.84;108140;1250;73138;-73
2024/01/17 06:19:53;;;;;;;55.50;28.30;;;;;;;-144.99;100.00;78309.63;108774;1250;73604;-73
2024/01/17 06:22:20;;;;;;;96.00;52.90;;;;;;;-144.99;100.00;78271.02;108240;1250;61097;-75
2024/01/17 06:24:47;;;;;;;59.20;30.30;;;;;;;-144.99;100.00;78237.59;108246;1250;61556;-73
2024/01/17 06:27:14;;;;;;;62.90;36.50;;;;;;;-144.99;100.00;78212.52;108383;1250;74722;-75
2024/01/17 06:29:43;;;;;;;57.20;31.80;;;;;;;-144.99;100.00;78196.20;108211;1250;73484;-72
2024/01/17 06:32:11;;;;;;;60.40;24.80;;;;;;;-144.99;100.00;78178.29;108436;1249;72316;-73
2024/01/17 06:34:39;;;;;;;96.00;32.90;;;;;;;-144.99;100.00;78161.98;108520;1250;61201;-72
2024/01/17 06:37:06;;;;;;;205.50;46.90;;;;;;;-144.99;100.00;78152.83;108268;1253;60225;-73
2024/01/17 06:39:33;;;;;;;258.00;53.20;;;;;;;-144.99;100.00;78148.05;108139;1250;75015;-74
2024/01/17 06:42:02;;;;;;;296.90;77.90;;;;;;;-144.99;100.00;78142.08;108369;1251;73501;-72
2024/01/17 06:44:29;;;;;;;163.50;59.50;;;;;;;-144.99;100.00;78134.52;108394;1250;73275;-74
2024/01/17 06:46:56;;;;;;;123.80;42.90;;;;;;;-144.99;100.00;78124.16;108315;1251;61429;-74
2024/01/17 06:49:23;;;;;;;90.00;33.90;;;;;;;-144.99;100.00;78124.17;108440;1250;61107;-73
2024/01/17 06:51:50;;;;;;;69.40;28.80;;;;;;;-144.99;100.00;78129.34;108415;1251;74568;-75
2024/01/17 06:54:18;;;;;;;57.60;24.90;;;;;;;-144.99;100.00;78139.30;108434;1249;73477;-74
2024/01/17 06:56:44;;;;;;;55.20;24.20;;;;;;;-144.99;100.00;78146.85;108297;1249;72661;-75
2024/01/17 06:59:12;;;;;;;49.40;23.70;;;;;;;-144.99;100.00;78155.61;108400;1250;61243;-75
2024/01/17 07:01:39;;;;;;;72.10;28.90;;;;;;;-144.99;100.00;78154.02;108366;1251;60099;-73
2024/01/17 07:04:07;;;;;;;110.70;38.10;;;;;;;-144.99;100.00;78142.48;108431;1249;74566;-74
2024/01/17 07:06:35;;;;;;;117.40;40.60;;;;;;;-144.99;100.00;78133.32;108335;1251;73314;-75
2024/01/17 07:09:02;;;;;;;69.10;27.40;;;;;;;-144.99;100.00;78121.78;108450;1249;72426;-74
2024/01/17 07:11:29;;;;;;;69.90;29.50;;;;;;;-144.99;100.00;78109.05;108346;1251;61215;-75
2024/01/17 07:13:56;;;;;;;51.70;24.00;;;;;;;-144.99;100.00;78102.27;108332;1250;61232;-75
2024/01/17 07:16:24;;;;;;;65.30;26.10;;;;;;;-144.99;100.00;78091.14;108184;1251;72226;-75
2024/01/17 07:18:53;;;;;;;42.40;21.30;;;;;;;-144.99;100.00;78075.62;108308;1251;73478;-74
2024/01/17 07:21:21;;;;;;;50.50;23.80;;;;;;;-144.99;100.00;78058.50;108241;1250;73820;-74
2024/01/17 07:23:48;;;;;;;38.90;22.30;;;;;;;-144.99;100.00;78042.19;108214;1251;61079;-74
2024/01/17 07:26:15;;;;;;;45.30;22.20;;;;;;;-144.99;100.00;78029.45;108279;1250;59537;-74
2024/01/17 07:28:42;;;;;;;42.80;20.70;;;;;;;-144.99;100.00;78016.31;108354;1251;74333;-74
2024/01/17 07:31:08;;;;;;;65.60;31.10;;;;;;;-144.99;100.00;78011.14;108422;1250;73328;-72
2024/01/17 07:33:35;;;;;;;50.80;25.80;;;;;;;-144.99;100.00;78004.38;108395;1251;72564;-73
2024/01/17 07:36:02;;;;;;;41.80;21.00;;;;;;;-144.99;100.00;77989.26;108390;1249;61746;-73
2024/01/17 07:38:30;;;;;;;63.40;28.70;;;;;;;-144.99;100.00;77978.91;108351;1249;61198;-74
2024/01/17 07:40:58;;;;;;;60.90;26.50;;;;;;;-144.99;100.00;77963.39;108429;1250;74865;-73
2024/01/17 07:43:25;;;;;;;63.30;27.90;;;;;;;-144.99;100.00;77940.71;108299;1249;73626;-74
2024/01/17 07:45:52;;;;;;;75.00;31.90;;;;;;;-144.99;100.00;77916.42;108305;1249;71658;-74
2024/01/17 07:48:19;;;;;;;40.60;21.10;;;;;;;-144.99;100.00;77889.77;108359;1251;61086;-73
2024/01/17 07:50:47;;;;;;;37.90;19.30;;;;;;;-144.99;100.00;77874.65;108415;1254;61299;-73
2024/01/17 07:53:14;;;;;;;34.50;19.00;;;;;;;-144.99;100.00;77863.90;108467;1250;74284;-74
2024/01/17 07:55:42;;;;;;;31.40;17.40;;;;;;;-144.99;100.00;77853.55;108385;1249;72140;-74
2024/01/17 07:58:11;;;;;;;33.40;18.10;;;;;;;-144.99;100.00;77841.22;108382;1249;71633;-74
2024/01/17 08:00:39;;;;;;;36.60;19.10;;;;;;;-144.99;100.00;77839.23;108317;1250;61366;-76
2024/01/17 08:03:06;;;;;;;35.30;18.50;;;;;;;-144.99;100.00;77838.03;108390;1250;61131;-76
2024/01/17 08:05:33;;;;;;;42.70;18.70;;;;;;;-144.99;100.00;77830.87;108399;1250;74597;-76
2024/01/17 08:08:01;;;;;;;32.70;17.50;;;;;;;-144.99;100.00;77819.33;108340;1250;71909;-76
2024/01/17 08:10:28;;;;;;;30.90;17.30;;;;;;;-144.99;100.00;77802.62;108355;1250;72458;-74
2024/01/17 08:12:56;;;;;;;32.10;18.30;;;;;;;-144.99;100.00;77783.52;108164;1250;61308;-75
2024/01/17 08:15:23;;;;;;;30.00;17.70;;;;;;;-144.99;100.00;77766.00;108210;1250;61074;-74
2024/01/17 08:17:50;;;;;;;28.50;14.90;;;;;;;-144.99;100.00;77752.08;108398;1250;73840;-75
2024/01/17 08:20:17;;;;;;;68.80;27.10;;;;;;;-144.99;100.00;77749.69;108384;1250;73517;-75
2024/01/17 08:22:44;;;;;;;36.80;20.00;;;;;;;-144.99;100.00;77748.89;108261;1253;72596;-75
2024/01/17 08:25:13;;;;;;;35.60;18.80;;;;;;;-144.99;100.00;77739.74;108282;1249;61080;-75
2024/01/17 08:27:40;;;;;;;35.00;18.10;;;;;;;-144.99;100.00;77729.00;108263;1251;61063;-75
2024/01/17 08:30:09;;;;;;;36.90;19.60;;;;;;;-144.99;100.00;77719.45;108357;1249;74724;-75
2024/01/17 08:32:37;;;;;;;38.90;21.00;;;;;;;-144.99;100.00;77711.89;108401;1250;74548;-75
2024/01/17 08:35:04;;;;;;;38.10;18.70;;;;;;;-144.99;100.00;77701.54;108420;1255;73522;-74
2024/01/17 08:37:32;;;;;;;38.90;19.90;;;;;;;-144.99;100.00;77693.98;108379;1250;61903;-74
2024/01/17 08:39:59;;;;;;;39.70;20.40;;;;;;;-144.99;100.00;77682.05;108062;1250;61240;-74
2024/01/17 08:42:25;;;;;;;37.30;18.50;;;;;;;-144.99;100.00;77670.50;108388;1251;74845;-73
2024/01/17 08:44:52;;;;;;;36.90;19.50;;;;;;;-144.99;100.00;77657.38;108414;1249;73085;-73
2024/01/17 08:47:19;;;;;;;36.10;19.30;;;;;;;-144.99;100.00;77639.46;108372;1250;72788;-79
2024/01/17 08:49:46;;;;;;;40.30;20.30;;;;;;;-144.99;100.00;77627.13;108448;1249;60079;-74
2024/01/17 08:52:14;;;;;;;41.10;21.80;;;;;;;-144.99;100.00;77617.58;108368;1253;61148;-76
2024/01/17 08:54:40;;;;;;;30.50;17.10;;;;;;;-144.99;100.00;77599.67;108309;1250;74522;-74
2024/01/17 08:57:08;;;;;;;31.80;19.00;;;;;;;-144.99;100.00;77595.70;108376;1250;73348;-74
2024/01/17 08:59:35;;;;;;;35.20;19.10;;;;;;;-144.99;100.00;77586.94;108249;1251;70450;-75
2024/01/17 09:02:02;;;;;;;35.00;19.00;;;;;;;-144.99;100.00;77568.63;108243;1250;61048;-76
2024/01/17 09:04:30;;;;;;;32.00;18.20;;;;;;;-144.99;100.00;77557.49;108390;1250;61070;-76
2024/01/17 09:06:58;;;;;;;33.60;19.00;;;;;;;-144.99;100.00;77547.95;108365;1250;73331;-75
2024/01/17 09:09:25;;;;;;;33.40;18.80;;;;;;;-144.99;100.00;77542.77;108392;1251;71335;-75
2024/01/17 09:11:53;;;;;;;29.70;17.80;;;;;;;-144.99;100.00;77532.83;108345;1250;70159;-75
2024/01/17 09:14:21;;;;;;;31.10;16.00;;;;;;;-144.99;100.00;77530.04;108318;1251;61120;-74
2024/01/17 09:16:50;;;;;;;27.60;16.60;;;;;;;-144.99;100.00;77534.02;108284;1251;61075;-76
2024/01/17 09:19:20;;;;;;;30.00;16.90;;;;;;;-144.99;100.00;77541.98;108241;1250;72644;-75
2024/01/17 09:21:48;;;;;;;30.10;18.00;;;;;;;-144.99;100.00;77543.17;108355;1250;74221;-76
2024/01/17 09:24:15;;;;;;;31.10;16.60;;;;;;;-144.99;100.00;77544.76;108230;1250;73644;-75
2024/01/17 09:26:42;;;;;;;29.50;16.60;;;;;;;-144.99;100.00;77545.16;108382;1249;61206;-76
2024/01/17 09:29:09;;;;;;;27.80;16.00;;;;;;;-144.99;100.00;77538.39;108298;1250;61087;-75
2024/01/17 09:31:37;;;;;;;28.50;16.80;;;;;;;-144.99;100.00;77533.23;108362;1250;73378;-74
2024/01/17 09:34:04;;;;;;;33.90;18.50;;;;;;;-144.99;100.00;77524.07;108405;1253;73569;-75
2024/01/17 09:36:32;;;;;;;30.50;17.80;;;;;;;-144.99;100.00;77512.92;108387;1250;71681;-75
2024/01/17 09:38:58;;;;;;;29.40;16.90;;;;;;;-144.99;100.00;77500.59;108301;1253;61398;-76
2024/01/17 09:41:26;;;;;;;28.50;16.00;;;;;;;-144.99;100.00;77487.46;108326;1249;61237;-75
2024/01/17 09:43:53;;;;;;;28.90;16.50;;;;;;;-144.99;100.00;77477.11;108429;1250;74642;-76
2024/01/17 09:46:20;;;;;;;33.30;18.80;;;;;;;-144.99;100.00;77468.77;108385;1250;73246;-76
2024/01/17 09:48:46;;;;;;;31.30;17.80;;;;;;;-144.99;100.00;77456.42;108423;1251;71480;-76
2024/01/17 09:51:17;;;;;;;24.10;14.10;;;;;;;-144.99;100.00;77445.27;108411;1251;61119;-76
2024/01/17 09:53:47;;;;;;;22.90;14.00;;;;;;;-144.99;100.00;77424.59;108272;1251;61116;-76
2024/01/17 09:56:14;;;;;;;24.30;14.20;;;;;;;-144.99;100.00;77408.27;108254;1254;73820;-76
2024/01/17 09:58:43;;;;;;;23.20;14.50;;;;;;;-144.99;100.00;77391.56;108449;1250;72254;-75
2024/01/17 10:01:10;;;;;;;21.60;13.20;;;;;;;-144.99;100.00;77372.06;108182;1251;71322;-76
2024/01/17 10:03:37;;;;;;;22.50;14.50;;;;;;;-144.99;100.00;77354.55;108292;1251;61055;-76
2024/01/17 10:06:05;;;;;;;23.30;13.90;;;;;;;-144.99;100.00;77339.84;108335;1251;61242;-77
2024/01/17 10:08:32;;;;;;;21.20;13.70;;;;;;;-144.99;100.00;77327.90;109068;1249;74808;-76
2024/01/17 10:10:59;;;;;;;27.30;14.10;;;;;;;-144.99;100.00;77313.18;108262;1251;72018;-75
2024/01/17 10:13:27;;;;;;;21.50;13.10;;;;;;;-144.99;100.00;77292.10;108294;1253;71539;-78
2024/01/17 10:15:54;;;;;;;18.30;11.80;;;;;;;-144.99;100.00;77273.39;108338;1249;60386;-75
2024/01/17 10:18:21;;;;;;;21.10;12.50;;;;;;;-144.99;100.00;77255.89;108387;1249;61182;-76
2024/01/17 10:20:48;;;;;;;19.50;12.50;;;;;;;-144.99;100.00;77241.56;108183;1249;73498;-75
2024/01/17 10:23:15;;;;;;;20.40;12.20;;;;;;;-144.99;100.00;77225.64;108212;1251;72092;-75
2024/01/17 10:25:43;;;;;;;20.60;12.30;;;;;;;-144.99;100.00;77210.13;108196;1251;70435;-78
2024/01/17 10:28:10;;;;;;;17.20;11.70;;;;;;;-144.99;100.00;77193.41;108284;1251;61119;-76
2024/01/17 10:30:41;;;;;;;21.50;11.80;;;;;;;-144.99;100.00;77178.29;108262;1251;61103;-77
2024/01/17 10:33:09;;;;;;;18.60;11.80;;;;;;;-144.99;100.00;77158.80;108422;1250;75795;-77
2024/01/17 10:35:36;;;;;;;17.00;11.40;;;;;;;-144.99;100.00;77142.48;108392;1253;74737;-76
2024/01/17 10:38:03;;;;;;;19.60;11.50;;;;;;;-144.99;100.00;77128.16;108297;1250;71868;-78
2024/01/17 10:40:31;;;;;;;18.60;12.80;;;;;;;-144.99;100.00;77111.05;108365;1250;61222;-76
2024/01/17 10:43:09;;;;;;;22.10;13.90;;;;;;;-144.99;100.00;77099.12;108365;1250;61193;-76
2024/01/17 10:45:37;;;;;;;22.80;11.90;;;;;;;-144.99;100.00;77084.39;108365;1249;74335;-75
2024/01/17 10:48:06;;;;;;;19.40;12.90;;;;;;;-144.99;100.00;77075.24;108377;1250;74375;-75
2024/01/17 10:50:33;;;;;;;19.80;13.10;;;;;;;-144.99;100.00;77063.70;108389;1250;72372;-77